createdAt,value
2022-10-20T00:01:10.027Z,64.49
2022-10-20T00:03:38.567Z,64.27
2022-10-20T00:06:11.912Z,63.82
2022-10-20T00:08:40.269Z,63.58
2022-10-20T00:11:10.965Z,63.86
2022-10-20T00:13:39.906Z,63.93
2022-10-20T00:16:09.023Z,64.32
2022-10-20T00:18:37.318Z,64.18
2022-10-20T00:21:08.083Z,64.17
2022-10-20T00:23:37.004Z,64.46
2022-10-20T00:26:07.358Z,64.99
2022-10-20T00:28:37.277Z,65.26
2022-10-20T00:31:09.063Z,65.13
2022-10-20T00:33:37.453Z,65.46
2022-10-20T00:36:07.632Z,65.21
2022-10-20T00:38:36.947Z,64.17
2022-10-20T00:41:06.179Z,65.34
2022-10-20T00:43:47.506Z,64.60
2022-10-20T00:46:18.342Z,65.29
2022-10-20T00:48:49.664Z,65.48
2022-10-20T00:51:21.152Z,65.80
2022-10-20T00:53:50.136Z,65.52
2022-10-20T00:56:18.520Z,65.49
2022-10-20T00:58:48.448Z,65.98
2022-10-20T01:01:17.016Z,65.28
2022-10-20T01:03:49.677Z,64.67
2022-10-20T01:06:20.334Z,65.56
2022-10-20T01:08:48.550Z,66.31
2022-10-20T01:11:29.651Z,65.84
2022-10-20T01:14:10.437Z,66.59
2022-10-20T01:16:47.914Z,65.68
2022-10-20T01:19:42.825Z,65.94
2022-10-20T01:22:28.426Z,65.39
2022-10-20T01:25:09.886Z,65.83
2022-10-20T01:27:43.017Z,65.87
2022-10-20T01:30:16.578Z,65.08
2022-10-20T01:33:05.318Z,64.67
2022-10-20T01:35:43.422Z,65.74
2022-10-20T01:38:22.038Z,64.84
2022-10-20T01:40:53.551Z,64.85
2022-10-20T01:43:26.883Z,65.48
2022-10-20T01:45:57.702Z,64.94
2022-10-20T01:48:30.256Z,65.21
2022-10-20T01:50:58.535Z,64.99
2022-10-20T01:53:26.609Z,65.09
2022-10-20T01:55:57.935Z,65.58
2022-10-20T01:58:51.778Z,65.49
2022-10-20T02:01:30.065Z,65.25
2022-10-20T02:04:01.316Z,66.16
2022-10-20T02:06:37.310Z,66.64
2022-10-20T02:09:07.454Z,65.79
2022-10-20T02:11:44.512Z,65.24
2022-10-20T02:14:18.343Z,65.22
2022-10-20T02:16:50.922Z,65.05
2022-10-20T02:19:22.519Z,65.33
2022-10-20T02:21:52.915Z,65.81
2022-10-20T02:24:24.416Z,66.02
2022-10-20T02:26:53.956Z,65.33
2022-10-20T02:29:28.268Z,65.27
2022-10-20T02:31:57.954Z,65.63
2022-10-20T02:34:27.106Z,65.19
2022-10-20T02:36:58.456Z,65.68
2022-10-20T02:39:27.083Z,65.56
2022-10-20T02:41:55.682Z,65.17
2022-10-20T02:44:25.633Z,64.75
2022-10-20T02:46:54.460Z,65.04
2022-10-20T02:49:25.193Z,65.34
2022-10-20T02:51:53.389Z,64.89
2022-10-20T02:54:21.583Z,64.39
2022-10-20T02:56:49.700Z,64.83
2022-10-20T02:59:18.108Z,64.98
2022-10-20T03:01:48.474Z,64.87
2022-10-20T03:04:16.711Z,65.24
2022-10-20T03:06:46.098Z,64.85
2022-10-20T03:09:15.889Z,65.39
2022-10-20T03:11:44.374Z,65.16
2022-10-20T03:14:14.055Z,65.23
2022-10-20T03:16:42.187Z,64.75
2022-10-20T03:19:12.072Z,64.76
2022-10-20T03:21:40.379Z,64.73
2022-10-20T03:24:08.418Z,64.16
2022-10-20T03:26:36.451Z,64.36
2022-10-20T03:29:04.979Z,64.60
2022-10-20T03:31:33.223Z,64.57
2022-10-20T03:34:01.340Z,64.57
2022-10-20T03:36:30.910Z,64.67
2022-10-20T03:38:58.971Z,64.86
2022-10-20T03:41:27.259Z,64.54
2022-10-20T03:43:55.313Z,64.79
2022-10-20T03:46:23.428Z,64.80
2022-10-20T03:48:51.587Z,64.29
2022-10-20T03:51:19.992Z,64.60
2022-10-20T03:53:49.676Z,64.69
2022-10-20T03:56:20.974Z,64.66
2022-10-20T03:58:49.725Z,65.15
2022-10-20T04:01:20.824Z,64.79
2022-10-20T04:03:48.951Z,64.73
2022-10-20T04:06:17.155Z,65.41
2022-10-20T04:08:45.412Z,65.49
2022-10-20T04:11:14.960Z,65.37
2022-10-20T04:13:43.077Z,65.29
2022-10-20T04:16:11.478Z,65.34
2022-10-20T04:18:39.741Z,65.83
2022-10-20T04:21:07.924Z,65.96
2022-10-20T04:23:36.062Z,66.13
2022-10-20T04:26:10.857Z,65.60
2022-10-20T04:28:40.584Z,66.12
2022-10-20T04:31:10.508Z,65.60
2022-10-20T04:33:38.672Z,64.92
2022-10-20T04:36:08.906Z,66.08
2022-10-20T04:38:37.007Z,66.40
2022-10-20T04:41:06.555Z,66.29
2022-10-20T04:43:35.239Z,66.84
2022-10-20T04:46:08.383Z,66.46
2022-10-20T04:48:37.357Z,67.23
2022-10-20T04:51:07.059Z,68.17
2022-10-20T04:53:35.677Z,70.25
2022-10-20T04:56:05.889Z,71.57
2022-10-20T04:58:34.687Z,71.15
2022-10-20T05:01:05.775Z,69.91
2022-10-20T05:03:34.225Z,69.92
2022-10-20T05:06:13.314Z,69.42
2022-10-20T05:08:42.830Z,69.63
2022-10-20T05:11:11.753Z,67.68
2022-10-20T05:13:40.684Z,66.96
2022-10-20T05:16:11.276Z,67.39
2022-10-20T05:18:39.783Z,67.97
2022-10-20T05:21:09.715Z,67.43
2022-10-20T05:23:39.424Z,69.07
2022-10-20T05:26:12.435Z,69.51
2022-10-20T05:28:43.698Z,69.75
2022-10-20T05:31:13.623Z,70.14
2022-10-20T05:33:45.965Z,70.54
2022-10-20T05:36:19.370Z,70.08
2022-10-20T05:38:52.187Z,69.74
2022-10-20T05:41:22.815Z,71.07
2022-10-20T05:43:52.048Z,70.26
2022-10-20T05:46:22.219Z,70.58
2022-10-20T05:48:54.231Z,68.33
2022-10-20T05:51:26.001Z,69.86
2022-10-20T05:53:57.071Z,69.54
2022-10-20T05:56:26.905Z,67.13
2022-10-20T05:58:57.626Z,67.70
2022-10-20T06:01:39.018Z,68.93
2022-10-20T06:04:09.692Z,67.33
2022-10-20T06:06:38.499Z,66.68
2022-10-20T06:09:09.120Z,67.35
2022-10-20T06:11:39.612Z,67.97
2022-10-20T06:14:08.538Z,67.09
2022-10-20T06:16:38.992Z,67.22
2022-10-20T06:19:08.065Z,67.91
2022-10-20T06:21:38.797Z,66.80
2022-10-20T06:24:08.106Z,66.61
2022-10-20T06:26:38.242Z,65.93
2022-10-20T06:29:08.574Z,65.39
2022-10-20T06:31:40.730Z,65.66
2022-10-20T06:34:12.855Z,64.82
2022-10-20T06:36:42.243Z,64.16
2022-10-20T06:39:14.492Z,63.83
2022-10-20T06:41:43.345Z,64.22
2022-10-20T06:44:20.561Z,63.96
2022-10-20T06:46:52.338Z,63.18
2022-10-20T06:49:20.848Z,62.97
2022-10-20T06:51:49.096Z,62.31
2022-10-20T06:54:19.082Z,64.49
2022-10-20T06:56:47.222Z,62.97
2022-10-20T06:59:15.464Z,63.61
2022-10-20T07:01:44.199Z,54.77
2022-10-20T07:04:16.392Z,48.07
2022-10-20T07:06:48.134Z,47.08
2022-10-20T07:09:19.572Z,45.35
2022-10-20T07:11:53.226Z,47.61
2022-10-20T07:14:22.094Z,46.37
2022-10-20T07:16:50.818Z,44.20
2022-10-20T07:19:20.436Z,45.72
2022-10-20T07:21:48.711Z,46.27
2022-10-20T07:24:17.242Z,47.66
2022-10-20T07:26:45.577Z,46.37
2022-10-20T07:29:14.917Z,44.35
2022-10-20T07:31:45.590Z,44.37
2022-10-20T07:34:31.732Z,45.62
2022-10-20T07:37:02.269Z,45.37
2022-10-20T07:39:30.969Z,41.24
2022-10-20T07:41:59.255Z,42.61
2022-10-20T07:44:27.446Z,43.33
2022-10-20T07:46:55.872Z,41.40
2022-10-20T07:49:43.413Z,38.58
2022-10-20T07:52:16.550Z,38.82
2022-10-20T07:54:45.002Z,38.67
2022-10-20T07:57:13.495Z,37.99
2022-10-20T07:59:41.894Z,39.05
2022-10-20T08:02:13.698Z,41.87
2022-10-20T08:04:44.127Z,39.45
2022-10-20T08:07:13.994Z,39.91
2022-10-20T08:09:42.434Z,38.89
2022-10-20T08:12:10.662Z,42.14
2022-10-20T08:14:38.944Z,40.27
2022-10-20T08:17:07.325Z,40.79
2022-10-20T08:19:39.468Z,40.52
2022-10-20T08:22:07.710Z,39.46
2022-10-20T08:24:37.658Z,40.78
2022-10-20T08:27:06.060Z,39.78
2022-10-20T08:29:34.367Z,41.00
2022-10-20T08:32:03.557Z,39.96
2022-10-20T08:34:32.492Z,40.64
2022-10-20T08:37:02.257Z,40.62
2022-10-20T08:39:30.586Z,38.62
2022-10-20T08:42:09.641Z,37.24
2022-10-20T08:44:41.345Z,38.75
2022-10-20T08:47:33.597Z,38.17
2022-10-20T08:50:03.878Z,39.77
2022-10-20T08:52:32.408Z,39.32
2022-10-20T08:55:00.888Z,34.83
2022-10-20T08:57:35.920Z,37.86
2022-10-20T09:00:16.546Z,37.97
2022-10-20T09:02:45.123Z,38.81
2022-10-20T09:05:18.215Z,40.03
2022-10-20T09:07:50.065Z,39.81
2022-10-20T09:10:29.661Z,38.48
2022-10-20T09:13:00.950Z,38.41
2022-10-20T09:15:30.435Z,36.94
2022-10-20T09:18:02.124Z,38.87
2022-10-20T09:20:34.359Z,40.50
2022-10-20T09:23:07.775Z,39.45
2022-10-20T09:25:45.293Z,41.39
2022-10-20T09:28:23.722Z,40.20
2022-10-20T09:30:57.520Z,38.30
2022-10-20T09:33:31.325Z,39.73
2022-10-20T09:36:06.301Z,37.78
2022-10-20T09:38:36.854Z,38.84
2022-10-20T09:41:12.684Z,40.92
2022-10-20T09:43:53.181Z,42.08
2022-10-20T09:46:27.284Z,41.72
2022-10-20T09:48:56.681Z,43.42
2022-10-20T09:51:27.253Z,42.13
2022-10-20T09:53:59.226Z,43.26
2022-10-20T09:56:30.517Z,41.85
2022-10-20T09:59:02.505Z,41.05
2022-10-20T10:01:31.353Z,43.76
2022-10-20T10:04:02.101Z,44.74
2022-10-20T10:06:40.520Z,45.04
2022-10-20T10:09:26.566Z,44.29
2022-10-20T10:12:00.434Z,42.69
2022-10-20T10:14:33.286Z,42.59
2022-10-20T10:17:02.625Z,43.97
2022-10-20T10:19:33.256Z,44.24
2022-10-20T10:22:04.181Z,42.98
2022-10-20T10:24:41.998Z,45.13
2022-10-20T10:27:26.398Z,45.74
2022-10-20T10:29:58.378Z,41.88
2022-10-20T10:32:28.234Z,42.99
2022-10-20T10:35:21.358Z,44.12
2022-10-20T10:37:50.618Z,42.95
2022-10-20T10:40:21.162Z,41.74
2022-10-20T10:43:03.080Z,39.80
2022-10-20T10:45:46.064Z,41.55
2022-10-20T10:48:39.171Z,41.46
2022-10-20T10:51:12.451Z,44.74
2022-10-20T10:53:52.840Z,48.68
2022-10-20T10:56:31.021Z,47.80
2022-10-20T10:59:05.670Z,46.70
2022-10-20T11:01:58.050Z,48.00
2022-10-20T11:08:00.106Z,46.71
2022-10-20T11:10:35.489Z,44.52
2022-10-20T11:13:27.088Z,45.65
2022-10-20T11:16:15.440Z,46.63
2022-10-20T11:19:09.297Z,46.86
2022-10-20T11:21:49.346Z,48.05
2022-10-20T11:24:36.613Z,47.23
2022-10-20T11:27:11.049Z,45.28
2022-10-20T11:29:44.036Z,45.44
2022-10-20T11:32:23.852Z,48.01
2022-10-20T11:35:02.336Z,47.10
2022-10-20T11:37:33.907Z,47.79
2022-10-20T11:40:15.007Z,48.02
2022-10-20T11:42:48.349Z,46.47
2022-10-20T11:45:39.975Z,46.38
2022-10-20T11:48:16.215Z,43.41
2022-10-20T11:50:54.077Z,44.58
2022-10-20T11:53:37.157Z,43.38
2022-10-20T11:56:34.214Z,43.26
2022-10-20T11:59:28.816Z,42.41
2022-10-20T12:02:21.141Z,44.55
2022-10-20T12:05:31.373Z,43.31
2022-10-20T12:08:29.618Z,43.29
2022-10-20T12:11:07.110Z,43.67
2022-10-20T12:13:42.781Z,44.66
2022-10-20T12:16:11.176Z,45.59
2022-10-20T12:18:39.753Z,44.65
2022-10-20T12:21:11.146Z,44.86
2022-10-20T12:24:24.481Z,43.40
2022-10-20T12:27:29.131Z,42.07
2022-10-20T12:30:01.993Z,43.13
2022-10-20T12:33:04.553Z,41.80
2022-10-20T12:36:02.566Z,42.83
2022-10-20T12:38:32.080Z,44.49
2022-10-20T12:41:02.249Z,42.66
2022-10-20T12:43:34.783Z,43.17
2022-10-20T12:46:11.712Z,42.59
2022-10-20T12:48:46.827Z,42.80
2022-10-20T12:51:22.519Z,42.60
2022-10-20T12:53:57.585Z,41.74
2022-10-20T12:56:33.123Z,41.72
2022-10-20T12:59:46.579Z,42.96
2022-10-20T13:02:50.364Z,43.04
2022-10-20T13:05:48.882Z,42.40
2022-10-20T13:08:29.812Z,43.16
2022-10-20T13:11:14.229Z,42.96
2022-10-20T13:14:04.080Z,43.13
2022-10-20T13:16:34.301Z,43.06
2022-10-20T13:19:08.825Z,42.92
2022-10-20T13:21:36.938Z,42.03
2022-10-20T13:24:14.674Z,42.96
2022-10-20T13:26:51.971Z,43.06
2022-10-20T13:29:25.746Z,41.26
2022-10-20T13:34:49.299Z,44.32
2022-10-20T13:37:34.584Z,42.85
2022-10-20T13:40:13.377Z,41.67
2022-10-20T13:42:52.937Z,43.05
2022-10-20T13:45:32.104Z,43.05
2022-10-20T13:48:13.806Z,42.80
2022-10-20T13:50:47.667Z,42.81
2022-10-20T13:53:23.140Z,42.37
2022-10-20T13:55:59.377Z,41.93
2022-10-20T13:58:28.256Z,42.53
2022-10-20T14:01:03.056Z,42.74
2022-10-20T14:03:36.577Z,42.37
2022-10-20T14:06:06.507Z,42.81
2022-10-20T14:08:44.151Z,42.17
2022-10-20T14:11:13.360Z,42.07
2022-10-20T14:13:44.225Z,42.79
2022-10-20T14:16:19.641Z,43.82
2022-10-20T14:19:01.428Z,43.03
2022-10-20T14:21:31.011Z,41.43
2022-10-20T14:24:04.256Z,42.58
2022-10-20T14:26:33.981Z,42.83
2022-10-20T14:29:04.642Z,43.49
2022-10-20T14:31:33.197Z,44.38
2022-10-20T14:34:01.682Z,44.57
2022-10-20T14:36:32.223Z,43.59
2022-10-20T14:39:01.639Z,44.19
2022-10-20T14:41:32.594Z,42.56
2022-10-20T14:44:05.199Z,44.31
2022-10-20T14:46:38.226Z,43.42
2022-10-20T14:49:16.653Z,43.96
2022-10-20T14:51:55.822Z,43.11
2022-10-20T14:54:37.100Z,44.00
2022-10-20T14:57:32.316Z,42.96
2022-10-20T15:00:04.116Z,44.71
2022-10-20T15:02:38.717Z,45.60
2022-10-20T15:05:25.910Z,45.94
2022-10-20T15:07:55.672Z,43.97
2022-10-20T15:10:26.503Z,43.79
2022-10-20T15:12:56.123Z,43.70
2022-10-20T15:15:27.398Z,44.62
2022-10-20T15:18:11.772Z,46.37
2022-10-20T15:20:41.383Z,46.94
2022-10-20T15:23:13.102Z,47.92
2022-10-20T15:25:49.751Z,48.47
2022-10-20T15:28:30.733Z,48.96
2022-10-20T15:31:04.313Z,49.89
2022-10-20T15:33:32.693Z,50.20
2022-10-20T15:36:02.316Z,49.13
2022-10-20T15:38:31.915Z,49.90
2022-10-20T15:43:35.339Z,50.72
2022-10-20T15:46:04.328Z,50.30
2022-10-20T15:48:32.861Z,50.43
2022-10-20T15:51:01.190Z,50.25
2022-10-20T15:53:29.459Z,49.59
2022-10-20T15:55:59.264Z,48.58
2022-10-20T15:58:27.453Z,49.56
2022-10-20T16:00:55.677Z,49.82
2022-10-20T16:03:23.948Z,48.88
2022-10-20T16:05:53.004Z,49.82
2022-10-20T16:08:21.253Z,49.57
2022-10-20T16:10:50.586Z,50.14
2022-10-20T16:13:21.322Z,49.88
2022-10-20T16:15:49.521Z,50.12
2022-10-20T16:18:17.623Z,50.76
2022-10-20T16:20:45.830Z,50.24
2022-10-20T16:23:14.078Z,49.92
2022-10-20T16:25:43.625Z,50.10
2022-10-20T16:28:12.040Z,51.36
2022-10-20T16:30:41.558Z,50.78
2022-10-20T16:33:10.536Z,51.01
2022-10-20T16:35:42.460Z,52.32
2022-10-20T16:38:10.915Z,52.15
2022-10-20T16:40:39.177Z,50.96
2022-10-20T16:43:08.539Z,51.46
2022-10-20T16:45:41.485Z,50.77
2022-10-20T16:48:09.997Z,49.68
2022-10-20T16:50:41.811Z,51.30
2022-10-20T16:53:09.879Z,51.84
2022-10-20T16:55:38.029Z,50.82
2022-10-20T16:58:06.137Z,51.17
2022-10-20T17:00:34.238Z,50.72
2022-10-20T17:03:03.740Z,50.29
2022-10-20T17:05:31.817Z,49.51
2022-10-20T17:08:00.120Z,50.36
2022-10-20T17:10:28.284Z,50.46
2022-10-20T17:12:56.533Z,49.37
2022-10-20T17:15:24.627Z,50.03
2022-10-20T17:17:52.723Z,49.99
2022-10-20T17:20:22.220Z,49.60
2022-10-20T17:22:50.384Z,49.18
2022-10-20T17:25:18.692Z,49.07
2022-10-20T17:27:46.869Z,48.03
2022-10-20T17:30:15.050Z,49.27
2022-10-20T17:32:43.914Z,49.05
2022-10-20T17:35:14.499Z,48.97
2022-10-20T17:37:43.958Z,48.99
2022-10-20T17:40:12.520Z,47.82
2022-10-20T17:42:41.025Z,48.90
2022-10-20T17:45:10.831Z,49.30
2022-10-20T17:47:39.897Z,49.38
2022-10-20T17:50:10.397Z,48.61
2022-10-20T17:52:39.426Z,49.53
2022-10-20T17:55:10.047Z,49.37
2022-10-20T17:57:38.126Z,48.71
2022-10-20T18:00:11.757Z,49.07
2022-10-20T18:02:48.167Z,48.98
2022-10-20T18:05:16.979Z,48.80
2022-10-20T18:07:45.826Z,48.00
2022-10-20T18:10:15.643Z,47.99
2022-10-20T18:12:44.054Z,48.06
2022-10-20T18:15:12.197Z,48.30
2022-10-20T18:17:40.446Z,47.89
2022-10-20T18:20:09.309Z,48.16
2022-10-20T18:22:38.467Z,47.52
2022-10-20T18:25:08.573Z,47.79
2022-10-20T18:27:37.977Z,46.07
2022-10-20T18:30:08.656Z,47.29
2022-10-20T18:32:37.262Z,47.11
2022-10-20T18:35:06.739Z,47.27
2022-10-20T18:37:35.274Z,46.84
2022-10-20T18:40:03.603Z,47.40
2022-10-20T18:42:31.786Z,47.37
2022-10-20T18:45:01.378Z,48.12
2022-10-20T18:47:29.477Z,46.98
2022-10-20T18:49:57.918Z,47.37
2022-10-20T18:52:26.346Z,47.30
2022-10-20T18:54:54.990Z,47.44
2022-10-20T18:57:23.184Z,47.60
2022-10-20T18:59:51.456Z,47.37
2022-10-20T19:02:20.916Z,46.81
2022-10-20T19:04:49.268Z,47.44
2022-10-20T19:07:18.065Z,48.17
2022-10-20T19:09:46.265Z,48.19
2022-10-20T19:12:14.444Z,48.07
2022-10-20T19:14:42.743Z,48.27
2022-10-20T19:17:10.869Z,48.87
2022-10-20T19:19:41.954Z,48.87
2022-10-20T19:22:09.983Z,49.34
2022-10-20T19:24:40.563Z,49.15
2022-10-20T19:27:25.607Z,49.50
2022-10-20T19:29:56.027Z,49.10
2022-10-20T19:32:24.297Z,49.68
2022-10-20T19:34:53.875Z,50.68
2022-10-20T19:37:21.976Z,50.82
2022-10-20T19:39:50.108Z,50.88
2022-10-20T19:42:18.465Z,52.33
2022-10-20T19:44:47.011Z,51.44
2022-10-20T19:47:15.874Z,51.35
2022-10-20T19:49:44.887Z,52.03
2022-10-20T19:52:14.510Z,51.61
2022-10-20T19:54:42.713Z,52.18
2022-10-20T19:57:11.069Z,52.52
2022-10-20T19:59:39.494Z,52.66
2022-10-20T20:02:07.559Z,52.34
2022-10-20T20:04:35.961Z,52.68
2022-10-20T20:07:04.246Z,52.19
2022-10-20T20:09:34.020Z,52.89
2022-10-20T20:12:02.088Z,53.32
2022-10-20T20:14:30.249Z,53.85
2022-10-20T20:16:58.676Z,53.77
2022-10-20T20:19:26.846Z,53.84
2022-10-20T20:21:54.936Z,53.41
2022-10-20T20:24:23.009Z,52.32
2022-10-20T20:26:52.544Z,51.82
2022-10-20T20:29:20.617Z,53.36
2022-10-20T20:31:49.164Z,52.73
2022-10-20T20:34:18.288Z,53.33
2022-10-20T20:36:46.346Z,53.23
2022-10-20T20:39:14.453Z,53.55
2022-10-20T20:41:42.758Z,53.07
2022-10-20T20:44:12.452Z,52.42
2022-10-20T20:46:40.779Z,53.16
2022-10-20T20:49:08.922Z,52.31
2022-10-20T20:51:36.933Z,52.57
2022-10-20T20:54:05.192Z,51.98
2022-10-20T20:56:34.517Z,53.46
2022-10-20T20:59:02.856Z,53.17
2022-10-20T21:01:32.791Z,52.05
2022-10-20T21:04:03.034Z,52.93
2022-10-20T21:06:49.394Z,53.36
2022-10-20T21:09:20.708Z,51.75
2022-10-20T21:11:49.249Z,53.37
2022-10-20T21:14:17.369Z,53.01
2022-10-20T21:16:47.089Z,53.61
2022-10-20T21:19:15.592Z,53.78
2022-10-20T21:21:47.240Z,54.48
2022-10-20T21:24:15.681Z,54.43
2022-10-20T21:26:44.226Z,54.47
2022-10-20T21:29:12.382Z,53.98
2022-10-20T21:31:41.173Z,53.88
2022-10-20T21:34:12.457Z,54.00
2022-10-20T21:36:41.059Z,54.59
2022-10-20T21:39:12.150Z,54.32
2022-10-20T21:41:40.333Z,54.03
2022-10-20T21:44:09.750Z,53.30
2022-10-20T21:46:40.382Z,54.20
2022-10-20T21:49:12.434Z,53.65
2022-10-20T21:51:42.569Z,53.63
2022-10-20T21:54:14.090Z,54.21
2022-10-20T21:56:44.479Z,53.56
2022-10-20T21:59:18.220Z,53.17
2022-10-20T22:01:46.801Z,52.68
2022-10-20T22:04:17.010Z,53.22
2022-10-20T22:06:45.363Z,54.14
2022-10-20T22:09:14.360Z,53.75
2022-10-20T22:11:46.162Z,54.50
2022-10-20T22:14:14.247Z,54.09
2022-10-20T22:16:43.759Z,53.88
2022-10-20T22:19:14.368Z,53.68
2022-10-20T22:21:46.060Z,53.54
2022-10-20T22:24:15.159Z,53.92
2022-10-20T22:26:44.495Z,54.38
2022-10-20T22:29:12.986Z,53.83
2022-10-20T22:31:41.876Z,53.11
2022-10-20T22:34:12.314Z,53.17
2022-10-20T22:36:40.840Z,54.68
2022-10-20T22:39:10.334Z,53.70
2022-10-20T22:41:38.448Z,53.57
2022-10-20T22:44:07.647Z,53.27
2022-10-20T22:46:35.881Z,52.96
2022-10-20T22:49:04.232Z,54.24
2022-10-20T22:51:32.318Z,54.75
2022-10-20T22:54:02.642Z,54.34
2022-10-20T22:56:32.131Z,54.09
2022-10-20T22:59:00.323Z,54.41
2022-10-20T23:01:28.469Z,53.48
2022-10-20T23:03:56.605Z,53.80
2022-10-20T23:06:26.752Z,55.34
2022-10-20T23:08:56.658Z,55.64
2022-10-20T23:11:25.370Z,55.32
2022-10-20T23:13:54.877Z,54.65
2022-10-20T23:18:58.514Z,54.25
2022-10-20T23:21:26.848Z,54.96
2022-10-20T23:23:55.705Z,54.38
2022-10-20T23:26:23.843Z,54.94
2022-10-20T23:28:52.044Z,55.30
2022-10-20T23:31:23.718Z,55.13
2022-10-20T23:33:56.028Z,55.75
2022-10-20T23:36:24.545Z,55.55
2022-10-20T23:38:52.654Z,55.50
2022-10-20T23:41:21.211Z,56.62
2022-10-20T23:43:49.709Z,56.79
2022-10-20T23:46:17.800Z,57.72
2022-10-20T23:48:49.625Z,56.48
2022-10-20T23:51:17.769Z,57.54
2022-10-20T23:53:45.995Z,56.14
2022-10-20T23:56:14.152Z,57.31
2022-10-20T23:58:42.295Z,55.69
